Accueil
METAR-TAF:

METAR-TAF

Aéroports :

Auckland, Nouvelle-Zélande

Aéroport d'Auckland

latitude: 37-01S, longitude: 174-48E, altitude: 7 m

Observation

Le bulletin a été fait il y a 47 minutes, à 06:00 UTC
Vent 7 kt de nord/nord-est
Température 12°C
Humidité 76%
Pression 1028 hPa
Visibilité 10 km ou plus

METAR: NZAA 240600Z AUTO 03007KT 9999 FEW065/// 12/08 Q1028 NOSIG

Heure: 18:47 (06:47 UTC)

Prévision

Le bulletin a été fait il y a 1 heure et 36 minutes, à 05:11 UTC
Prévision valable du 24 à 06 UTC au 25 à 06 UTC
Vent 2 kt de direction variable
Visibilité 10 km ou plus
Nuages épars à une hauteur de 2000 ft
faibles averses de pluie
Probabilité 30% :
Temporairement
du 24 à 13 UTC au 24 à 19 UTC
Visibilité: 0400 m
brouillard
Evoluant progressivement
du 25 à 00 UTC au 25 à 02 UTC
Vent 10 kt de nord/nord-est

TAF: NZAA 240511Z 2406/2506 VRB02KT 9999 -SHRA SCT020 PROB30 TEMPO 2413/2419 0400 FG BECMG 2500/2502 03010KT

Observations et prévisions météorologiques de plus de 4000 aéroports (messages METAR et TAF).

Les stations disponibles sont représentées par des disques jaunes et rouges sur la carte.

Passer la souris dessus pour voir le nom de la station.

Cliquer dessus pour voir les observations et prévisions météorologiques.

Pour changer de carte: cliquez sur les boutons verts avec une croix noire pour zoomer, sur le bouton vert avec un tiret pour effectuer un zoom arrière, ou sur les flèches vertes pour les cartes adjacentes.


METAR-TAF: